Time;durP1;ratioP1;P1;durP2;ratioP2;P2;SDS_P1;SDS_P2;PMS_P1;PMS_P2;Temp;Humidity;BMP_temperature;BMP_pressure;BME280_temperature;BME280_humidity;BME280_pressure;Samples;Min_cycle;Max_cycle;Signal;HPM_P1;HPM_P2
2024/01/17 00:02:07;;;;;;;;;;;;;;;1.67;66.33;97084.91;5045761;28;19931;-62
2024/01/17 00:04:35;;;;;;;;;;;;;;;1.67;66.35;97084.91;5046462;28;19956;-63
2024/01/17 00:07:02;;;;;;;;;;;;;;;1.91;65.60;97085.47;5045403;28;20470;-63
2024/01/17 00:09:29;;;;;;;;;;;;;;;2.17;65.38;97090.25;5044989;28;19921;-63
2024/01/17 00:11:58;;;;;;;;;;;;;;;2.08;64.42;97087.84;5045314;28;19927;-63
2024/01/17 00:14:25;;;;;;;;;;;;;;;2.10;65.46;97088.66;5045962;28;19928;-62
2024/01/17 00:16:52;;;;;;;;;;;;;;;2.03;66.40;97087.88;5045631;28;20386;-63
2024/01/17 00:19:19;;;;;;;;;;;;;;;2.04;66.95;97097.22;5044258;28;19925;-63
2024/01/17 00:21:47;;;;;;;;;;;;;;;1.93;67.58;97093.13;5044725;28;19931;-62
2024/01/17 00:24:14;;;;;;;;;;;;;;;1.94;67.67;97093.09;5045305;28;19956;-63
2024/01/17 00:26:41;;;;;;;;;;;;;;;1.89;66.91;97083.81;5045989;28;19927;-63
2024/01/17 00:29:08;;;;;;;;;;;;;;;1.71;67.01;97091.66;5045072;28;20015;-62
2024/01/17 00:31:35;;;;;;;;;;;;;;;1.95;67.12;97099.06;5045718;28;19921;-63
2024/01/17 00:34:02;;;;;;;;;;;;;;;2.01;66.64;97092.16;5045469;28;20422;-63
2024/01/17 00:36:29;;;;;;;;;;;;;;;1.82;67.18;97082.16;5045814;28;19920;-63
2024/01/17 00:38:56;;;;;;;;;;;;;;;1.73;67.29;97077.19;5045842;28;19920;-63
2024/01/17 00:41:23;;;;;;;;;;;;;;;1.78;66.48;97083.91;5045142;28;20408;-64
2024/01/17 00:43:50;;;;;;;;;;;;;;;1.93;65.52;97095.66;5046023;28;19927;-62
2024/01/17 00:46:17;;;;;;;;;;;;;;;1.87;66.28;97080.44;5048947;28;19921;-63
2024/01/17 00:48:44;;;;;;;;;;;;;;;1.72;66.75;97083.13;5049735;28;19949;-62
2024/01/17 00:51:20;;;;;;;;;;;;;;;1.57;66.48;97089.25;5049167;28;19970;-63
2024/01/17 00:53:47;;;;;;;;;;;;;;;1.89;66.24;97086.34;5049282;28;20287;-62
2024/01/17 00:56:15;;;;;;;;;;;;;;;1.84;65.58;97093.22;5049604;28;20354;-63
2024/01/17 00:58:42;;;;;;;;;;;;;;;1.64;66.88;97091.72;5049066;28;19927;-63
2024/01/17 01:01:09;;;;;;;;;;;;;;;1.78;66.29;97078.81;5049582;28;19964;-63
2024/01/17 01:03:36;;;;;;;;;;;;;;;1.88;66.30;97077.00;5048750;28;20384;-63
2024/01/17 01:06:04;;;;;;;;;;;;;;;2.02;64.84;97082.81;5047989;28;19986;-63
2024/01/17 01:08:32;;;;;;;;;;;;;;;1.36;66.07;97018.88;5048958;28;20473;-64
2024/01/17 01:10:58;;;;;;;;;;;;;;;1.77;67.36;97089.06;5048876;28;19940;-62
2024/01/17 01:13:25;;;;;;;;;;;;;;;1.80;66.52;97086.44;5049011;28;19925;-62
2024/01/17 01:15:52;;;;;;;;;;;;;;;2.03;64.71;97075.13;5048443;28;20099;-62
2024/01/17 01:18:19;;;;;;;;;;;;;;;1.90;65.49;97067.59;5049390;28;19927;-62
2024/01/17 01:20:46;;;;;;;;;;;;;;;1.69;66.23;97072.97;5048210;28;19928;-61
2024/01/17 01:23:13;;;;;;;;;;;;;;;1.65;65.68;97067.88;5049218;28;19951;-63
2024/01/17 01:25:40;;;;;;;;;;;;;;;1.76;65.72;97069.47;5048575;28;19967;-62
2024/01/17 01:28:07;;;;;;;;;;;;;;;1.70;65.63;97046.56;5048736;28;19931;-62
2024/01/17 01:30:34;;;;;;;;;;;;;;;1.84;63.73;97067.69;5047418;28;20297;-64
2024/01/17 01:33:01;;;;;;;;;;;;;;;1.46;66.11;97066.38;5048394;28;19970;-63
2024/01/17 01:35:28;;;;;;;;;;;;;;;1.32;66.16;97068.22;5047761;28;20004;-62
2024/01/17 01:37:55;;;;;;;;;;;;;;;1.52;65.62;97070.59;5047809;28;20317;-63
2024/01/17 01:40:21;;;;;;;;;;;;;;;1.62;65.61;97067.94;5048917;28;19928;-63
2024/01/17 01:42:48;;;;;;;;;;;;;;;1.67;65.82;97079.81;5048175;28;19927;-63
2024/01/17 01:45:15;;;;;;;;;;;;;;;1.69;66.29;97085.75;5048628;28;20380;-62
2024/01/17 01:47:42;;;;;;;;;;;;;;;1.73;65.02;97089.94;5048133;28;20006;-63
2024/01/17 01:50:11;;;;;;;;;;;;;;;1.33;66.83;97081.81;5048112;28;19921;-63
2024/01/17 01:52:39;;;;;;;;;;;;;;;1.16;67.28;97068.38;5048431;28;19944;-61
2024/01/17 01:55:06;;;;;;;;;;;;;;;1.10;67.46;97069.28;5047620;28;20371;-61
2024/01/17 01:57:38;;;;;;;;;;;;;;;1.05;67.36;97065.91;5047570;28;20018;-63
2024/01/17 02:00:06;;;;;;;;;;;;;;;1.07;67.48;97059.09;5047952;28;19932;-63
2024/01/17 02:02:38;;;;;;;;;;;;;;;1.15;67.67;97059.03;5048171;28;20477;-62
2024/01/17 02:05:05;;;;;;;;;;;;;;;1.17;68.38;97057.34;5048077;28;19932;-63
2024/01/17 02:07:33;;;;;;;;;;;;;;;1.38;67.28;97052.03;5047869;28;20469;-63
2024/01/17 02:10:01;;;;;;;;;;;;;;;1.42;65.38;97054.50;5048234;28;20010;-63
2024/01/17 02:12:29;;;;;;;;;;;;;;;1.38;65.27;97052.03;5047305;28;19921;-62
2024/01/17 02:14:56;;;;;;;;;;;;;;;1.24;66.32;97058.94;5048350;28;20389;-62
2024/01/17 02:17:23;;;;;;;;;;;;;;;1.08;67.64;97055.69;5047632;28;19920;-63
2024/01/17 02:20:11;;;;;;;;;;;;;;;1.12;66.23;97053.97;5046603;28;20276;-63
2024/01/17 02:22:37;;;;;;;;;;;;;;;1.25;66.69;97051.31;5048293;28;19928;-63
2024/01/17 02:25:04;;;;;;;;;;;;;;;1.25;66.84;97028.34;5047571;28;20499;-63
2024/01/17 02:27:31;;;;;;;;;;;;;;;1.41;66.39;97049.44;5048205;28;19920;-63
2024/01/17 02:29:58;;;;;;;;;;;;;;;1.37;66.36;97051.19;5047300;28;20019;-64
2024/01/17 02:32:25;;;;;;;;;;;;;;;1.31;66.70;97045.28;5047798;28;20016;-64
2024/01/17 02:34:52;;;;;;;;;;;;;;;1.21;67.37;97049.63;5047390;28;19927;-63
2024/01/17 02:37:19;;;;;;;;;;;;;;;1.10;67.17;97055.69;5047177;28;19921;-63
2024/01/17 02:39:46;;;;;;;;;;;;;;;1.13;67.20;97043.78;5047612;28;19920;-63
2024/01/17 02:42:13;;;;;;;;;;;;;;;1.20;67.46;97047.94;5047384;28;20484;-63
2024/01/17 02:44:40;;;;;;;;;;;;;;;1.13;67.28;97048.88;5047672;28;20011;-64
2024/01/17 02:47:07;;;;;;;;;;;;;;;1.14;67.80;97048.00;5047004;28;20315;-62
2024/01/17 02:49:34;;;;;;;;;;;;;;;1.20;66.62;97057.28;5047592;28;19921;-63
2024/01/17 02:52:01;;;;;;;;;;;;;;;1.19;67.14;97056.47;5046870;28;19921;-64
2024/01/17 02:54:28;;;;;;;;;;;;;;;1.20;67.77;97047.94;5047078;28;19920;-64
2024/01/17 02:56:55;;;;;;;;;;;;;;;1.14;67.14;97045.44;5046970;28;19927;-63
2024/01/17 02:59:22;;;;;;;;;;;;;;;0.91;68.25;97054.16;5046835;28;19970;-63
2024/01/17 03:01:50;;;;;;;;;;;;;;;1.02;68.32;97052.34;5047186;28;19971;-63
2024/01/17 03:04:17;;;;;;;;;;;;;;;0.95;67.92;97048.19;5046479;28;19990;-63
2024/01/17 03:06:46;;;;;;;;;;;;;;;0.80;68.60;97051.69;5047011;28;19920;-63
2024/01/17 03:09:14;;;;;;;;;;;;;;;0.96;67.83;97058.34;5046260;28;20015;-64
2024/01/17 03:11:41;;;;;;;;;;;;;;;0.65;68.84;97050.09;5046879;28;19951;-63
2024/01/17 03:14:08;;;;;;;;;;;;;;;0.65;69.25;97051.81;5046737;28;20015;-63
2024/01/17 03:16:36;;;;;;;;;;;;;;;0.53;69.52;97052.75;5046495;28;19956;-63
2024/01/17 03:19:03;;;;;;;;;;;;;;;0.65;69.49;97054.34;5046810;28;19940;-63
2024/01/17 03:21:30;;;;;;;;;;;;;;;0.83;68.97;97051.66;5046570;28;20338;-62
2024/01/17 03:23:58;;;;;;;;;;;;;;;0.90;68.18;97053.31;5047259;28;19931;-63
2024/01/17 03:26:25;;;;;;;;;;;;;;;0.78;68.79;97064.44;5046316;28;19959;-61
2024/01/17 03:28:52;;;;;;;;;;;;;;;0.58;68.77;97055.22;5046565;28;19927;-61
2024/01/17 03:31:19;;;;;;;;;;;;;;;0.28;70.13;97046.09;5046327;28;20043;-62
2024/01/17 03:33:46;;;;;;;;;;;;;;;0.29;71.10;97052.03;5045972;28;20370;-62
2024/01/17 03:36:13;;;;;;;;;;;;;;;0.35;71.15;97062.19;5045086;28;19927;-63
2024/01/17 03:38:40;;;;;;;;;;;;;;;0.46;71.09;97045.13;5046003;28;19920;-63
2024/01/17 03:41:08;;;;;;;;;;;;;;;0.60;70.02;97045.88;5046530;28;19921;-63
2024/01/17 03:43:35;;;;;;;;;;;;;;;0.46;70.95;97047.69;5045919;28;19920;-63
2024/01/17 03:46:01;;;;;;;;;;;;;;;0.49;69.96;97053.63;5046728;28;19921;-63
2024/01/17 03:48:28;;;;;;;;;;;;;;;0.62;70.05;97072.19;5045883;28;19921;-63
2024/01/17 03:50:55;;;;;;;;;;;;;;;0.71;69.55;97060.25;5045971;28;19965;-63
2024/01/17 03:53:22;;;;;;;;;;;;;;;0.49;70.08;97057.84;5078114;28;19927;-62
2024/01/17 03:55:49;;;;;;;;;;;;;;;0.56;70.64;97068.00;5045551;28;19956;-62
2024/01/17 03:58:16;;;;;;;;;;;;;;;0.71;69.95;97067.91;5046492;28;20311;-62
2024/01/17 04:00:43;;;;;;;;;;;;;;;0.42;69.55;97074.03;5045398;28;19965;-62
2024/01/17 04:03:13;;;;;;;;;;;;;;;0.29;71.44;97069.88;5046171;28;19921;-62
2024/01/17 04:05:41;;;;;;;;;;;;;;;0.14;72.25;97068.25;5044684;28;19929;-62
2024/01/17 04:08:08;;;;;;;;;;;;;;;0.22;71.99;97066.50;5045795;28;19920;-61
2024/01/17 04:10:35;;;;;;;;;;;;;;;0.17;73.01;97067.38;5044127;28;20012;-62
2024/01/17 04:13:02;;;;;;;;;;;;;;;0.02;73.25;97068.31;5045500;28;20031;-62
2024/01/17 04:15:29;;;;;;;;;;;;;;;0.02;73.31;97073.41;5046041;28;19943;-63
2024/01/17 04:17:56;;;;;;;;;;;;;;;-0.04;74.62;97071.69;5044353;28;19921;-63
2024/01/17 04:20:23;;;;;;;;;;;;;;;0.04;74.39;97076.78;5045442;28;20015;-62
2024/01/17 04:22:50;;;;;;;;;;;;;;;0.13;73.58;97086.06;5045711;28;20408;-62
2024/01/17 04:25:16;;;;;;;;;;;;;;;0.29;73.04;97087.69;5045779;28;19921;-62
2024/01/17 04:27:43;;;;;;;;;;;;;;;0.38;73.06;97097.81;5045630;28;19920;-62
2024/01/17 04:30:11;;;;;;;;;;;;;;;0.30;73.59;97110.59;5045213;28;20010;-63
2024/01/17 04:32:38;;;;;;;;;;;;;;;0.47;73.01;97105.41;5044314;28;20312;-62
2024/01/17 04:35:05;;;;;;;;;;;;;;;0.44;72.10;97108.81;5044908;28;19924;-63
2024/01/17 04:37:32;;;;;;;;;;;;;;;0.45;71.62;97110.53;5046105;28;20003;-63
2024/01/17 04:39:59;;;;;;;;;;;;;;;0.56;72.06;97113.84;5045211;28;19920;-63
2024/01/17 04:42:27;;;;;;;;;;;;;;;0.45;71.66;97102.88;5045535;28;19993;-63
2024/01/17 04:44:54;;;;;;;;;;;;;;;0.45;70.52;97104.59;5044865;28;19944;-63
2024/01/17 04:47:21;;;;;;;;;;;;;;;0.25;70.93;97106.38;5045293;28;19921;-63
2024/01/17 04:49:48;;;;;;;;;;;;;;;0.15;71.58;97119.97;5045656;28;19921;-62
2024/01/17 04:52:17;;;;;;;;;;;;;;;0.14;71.94;97116.63;5044492;28;19921;-63
2024/01/17 04:54:44;;;;;;;;;;;;;;;0.32;71.00;97123.31;5046099;28;19960;-63
2024/01/17 04:57:12;;;;;;;;;;;;;;;0.41;71.33;97119.00;5044493;28;19926;-62
2024/01/17 04:59:39;;;;;;;;;;;;;;;0.46;70.32;97119.00;5044959;28;19940;-63
2024/01/17 05:02:06;;;;;;;;;;;;;;;0.53;70.64;97123.22;5041730;28;19943;-63
2024/01/17 05:04:33;;;;;;;;;;;;;;;0.53;71.66;97126.63;5043169;28;20031;-64
2024/01/17 05:07:01;;;;;;;;;;;;;;;0.55;70.76;97122.34;5045234;28;19921;-63
2024/01/17 05:09:28;;;;;;;;;;;;;;;0.67;70.89;97117.19;5044687;28;19928;-63
2024/01/17 05:11:55;;;;;;;;;;;;;;;0.79;70.60;97108.59;5044217;28;19991;-62
2024/01/17 05:14:22;;;;;;;;;;;;;;;0.76;68.75;97116.28;5044078;28;19921;-62
2024/01/17 05:16:50;;;;;;;;;;;;;;;0.70;69.58;97127.34;5045051;28;19920;-63
2024/01/17 05:19:17;;;;;;;;;;;;;;;0.61;69.15;97131.66;5044879;28;20351;-64
2024/01/17 05:21:44;;;;;;;;;;;;;;;0.57;70.31;97128.28;5044941;28;20641;-64
2024/01/17 05:24:11;;;;;;;;;;;;;;;0.62;69.55;97130.78;5045453;28;19920;-63
2024/01/17 05:26:38;;;;;;;;;;;;;;;0.43;69.18;97147.03;5045056;28;19927;-62
2024/01/17 05:29:06;;;;;;;;;;;;;;;0.51;69.47;97132.56;5045565;28;19921;-63
2024/01/17 05:31:33;;;;;;;;;;;;;;;0.49;69.07;97147.00;5045394;28;20374;-61
2024/01/17 05:34:00;;;;;;;;;;;;;;;0.49;69.74;97134.28;5048970;28;20407;-62
2024/01/17 05:36:27;;;;;;;;;;;;;;;0.22;69.80;97140.34;5048097;28;19975;-63
2024/01/17 05:38:58;;;;;;;;;;;;;;;0.21;70.16;97143.72;5048704;28;20201;-62
2024/01/17 05:41:25;;;;;;;;;;;;;;;0.25;70.78;97142.03;5048256;28;19921;-64
2024/01/17 05:43:52;;;;;;;;;;;;;;;0.35;70.22;97154.69;5046486;28;19921;-63
2024/01/17 05:46:19;;;;;;;;;;;;;;;0.29;70.83;97159.00;5048781;28;19925;-64
2024/01/17 05:48:46;;;;;;;;;;;;;;;0.30;69.74;97160.66;5047666;28;20035;-64
2024/01/17 05:51:13;;;;;;;;;;;;;;;0.38;70.57;97176.75;5048330;28;19968;-64
2024/01/17 05:53:41;;;;;;;;;;;;;;;0.47;70.60;97181.84;5047768;28;19978;-63
2024/01/17 05:56:07;;;;;;;;;;;;;;;0.50;69.68;97174.16;5047759;28;19921;-62
2024/01/17 05:58:34;;;;;;;;;;;;;;;0.43;70.47;97172.50;5047746;28;19928;-62
2024/01/17 06:01:02;;;;;;;;;;;;;;;0.49;69.03;97177.56;5047959;28;20028;-63
2024/01/17 06:03:29;;;;;;;;;;;;;;;0.50;69.86;97171.63;5048458;28;19987;-63
2024/01/17 06:05:56;;;;;;;;;;;;;;;0.59;69.01;97172.44;5047641;28;19943;-63
2024/01/17 06:08:23;;;;;;;;;;;;;;;0.52;69.24;97177.53;5048413;28;19921;-63
2024/01/17 06:10:50;;;;;;;;;;;;;;;0.53;70.41;97171.63;5047158;28;19971;-63
2024/01/17 06:13:17;;;;;;;;;;;;;;;0.56;69.65;97179.22;5048498;28;19978;-64
2024/01/17 06:15:44;;;;;;;;;;;;;;;0.53;70.01;97179.25;5047842;28;20007;-64
2024/01/17 06:18:12;;;;;;;;;;;;;;;0.67;69.44;97169.84;5047945;28;19927;-62
2024/01/17 06:20:40;;;;;;;;;;;;;;;0.46;69.33;97169.94;5048042;28;19924;-62
2024/01/17 06:23:07;;;;;;;;;;;;;;;0.63;70.12;97173.25;5047390;28;19921;-62
2024/01/17 06:25:34;;;;;;;;;;;;;;;0.84;70.08;97178.25;5046506;28;19924;-63
2024/01/17 06:28:00;;;;;;;;;;;;;;;0.95;69.06;97178.19;5047315;28;20307;-64
2024/01/17 06:30:27;;;;;;;;;;;;;;;1.01;69.54;97170.50;5047814;28;19943;-63
2024/01/17 06:32:54;;;;;;;;;;;;;;;1.22;68.50;97173.72;5047648;28;19921;-63
2024/01/17 06:35:21;;;;;;;;;;;;;;;1.27;67.40;97184.75;5047349;28;19970;-64
2024/01/17 06:37:48;;;;;;;;;;;;;;;1.33;67.86;97179.59;5047521;28;19926;-64
2024/01/17 06:40:15;;;;;;;;;;;;;;;1.16;68.59;97181.44;5047262;28;19931;-63
2024/01/17 06:42:42;;;;;;;;;;;;;;;1.28;68.27;97183.88;5046042;28;20024;-62
2024/01/17 06:45:10;;;;;;;;;;;;;;;1.28;68.08;97183.88;5046706;28;20422;-64
2024/01/17 06:47:37;;;;;;;;;;;;;;;1.21;69.19;97205.22;5047715;28;20505;-64
2024/01/17 06:50:05;;;;;;;;;;;;;;;1.33;69.36;97189.81;5047184;28;20457;-63
2024/01/17 06:52:32;;;;;;;;;;;;;;;1.38;69.21;97208.47;5047188;28;19963;-63
2024/01/17 06:54:59;;;;;;;;;;;;;;;1.42;68.62;97212.69;5047166;28;19924;-64
2024/01/17 06:57:26;;;;;;;;;;;;;;;1.59;69.12;97205.75;5046953;28;19928;-64
2024/01/17 06:59:53;;;;;;;;;;;;;;;1.72;68.14;97206.50;5047292;28;19921;-64
2024/01/17 07:02:20;;;;;;;;;;;;;;;1.48;69.19;97211.81;5046345;28;19927;-64
2024/01/17 07:04:47;;;;;;;;;;;;;;;1.41;70.00;97210.16;5047256;28;19970;-65
2024/01/17 07:07:14;;;;;;;;;;;;;;;1.45;69.34;97210.13;5046485;28;19920;-63
2024/01/17 07:09:41;;;;;;;;;;;;;;;1.30;70.18;97199.19;5046563;28;20027;-64
2024/01/17 07:12:08;;;;;;;;;;;;;;;1.54;69.34;97207.50;5046975;28;20407;-64
2024/01/17 07:14:35;;;;;;;;;;;;;;;1.52;70.63;97205.81;5046378;28;20479;-63
2024/01/17 07:17:02;;;;;;;;;;;;;;;1.71;69.13;97209.06;5046884;28;19977;-62
2024/01/17 07:19:29;;;;;;;;;;;;;;;1.69;69.64;97205.69;5045828;28;19968;-63
2024/01/17 07:21:56;;;;;;;;;;;;;;;1.57;70.16;97204.91;5046742;28;19920;-63
2024/01/17 07:24:23;;;;;;;;;;;;;;;1.53;70.58;97195.59;5046677;28;19925;-64
2024/01/17 07:26:50;;;;;;;;;;;;;;;1.67;70.99;97200.56;5045339;28;20517;-63
2024/01/17 07:29:17;;;;;;;;;;;;;;;1.67;70.95;97184.44;5046375;28;20016;-62
2024/01/17 07:31:43;;;;;;;;;;;;;;;1.35;70.77;97126.88;5046250;28;19931;-63
2024/01/17 07:34:10;;;;;;;;;;;;;;;2.02;70.42;97196.00;5046577;28;20065;-64
2024/01/17 07:36:38;;;;;;;;;;;;;;;2.12;70.42;97182.25;5045782;28;20333;-64
2024/01/17 07:39:06;;;;;;;;;;;;;;;2.19;70.08;97186.47;5044954;28;19928;-63
2024/01/17 07:41:34;;;;;;;;;;;;;;;2.34;69.59;97190.56;5045266;28;19921;-64
2024/01/17 07:44:02;;;;;;;;;;;;;;;2.28;69.43;97200.84;5044925;28;19920;-64
2024/01/17 07:46:29;;;;;;;;;;;;;;;2.38;69.29;97195.63;5077786;28;20023;-64
2024/01/17 07:48:56;;;;;;;;;;;;;;;2.49;69.01;97192.94;5045971;28;19978;-64
2024/01/17 07:51:23;;;;;;;;;;;;;;;2.55;67.61;97202.22;5046183;28;19927;-64
2024/01/17 07:53:51;;;;;;;;;;;;;;;2.80;66.66;97203.63;5044896;28;20299;-65
2024/01/17 07:56:18;;;;;;;;;;;;;;;2.84;66.89;97195.06;5046170;28;19927;-64
2024/01/17 07:58:45;;;;;;;;;;;;;;;2.90;66.85;97200.94;5027534;28;19956;-65
2024/01/17 08:01:12;;;;;;;;;;;;;;;2.98;66.45;97194.00;5045972;28;20015;-63
2024/01/17 08:03:40;;;;;;;;;;;;;;;3.08;66.09;97179.38;5045452;28;19921;-64
2024/01/17 08:06:07;;;;;;;;;;;;;;;2.97;66.19;97179.50;5045655;28;19921;-64
2024/01/17 08:08:35;;;;;;;;;;;;;;;3.25;66.28;97170.59;5045892;28;19921;-63
2024/01/17 08:11:02;;;;;;;;;;;;;;;3.28;65.69;97172.22;5044140;28;20391;-63
2024/01/17 08:15:23;;;;;;;;;;;;;;;3.74;64.01;97174.91;5104422;27;19920;-65
2024/01/17 08:17:50;;;;;;;;;;;;;;;3.73;63.97;97165.53;5104031;28;20307;-66
2024/01/17 08:20:18;;;;;;;;;;;;;;;3.94;63.01;97166.00;5103512;28;19924;-65
2024/01/17 08:22:44;;;;;;;;;;;;;;;4.01;62.85;97166.75;5103191;28;20014;-63
2024/01/17 08:25:11;;;;;;;;;;;;;;;4.29;62.08;97175.59;5102648;28;20518;-64
2024/01/17 08:27:38;;;;;;;;;;;;;;;4.28;61.73;97173.94;5104281;28;20275;-65
2024/01/17 08:30:09;;;;;;;;;;;;;;;4.41;62.00;97188.19;5102241;28;19924;-64
2024/01/17 08:32:37;;;;;;;;;;;;;;;4.54;61.24;97184.50;5104333;28;20370;-63
2024/01/17 08:35:04;;;;;;;;;;;;;;;4.73;61.73;97182.41;5103358;28;20398;-63
2024/01/17 08:37:31;;;;;;;;;;;;;;;4.76;58.97;97172.94;5103351;28;19924;-65
2024/01/17 08:39:58;;;;;;;;;;;;;;;5.03;58.49;97180.94;5103827;28;20359;-65
2024/01/17 08:42:25;;;;;;;;;;;;;;;4.88;58.05;97172.66;5102219;28;19931;-65
2024/01/17 08:44:53;;;;;;;;;;;;;;;4.97;57.66;97175.03;5102431;28;20394;-64
2024/01/17 08:47:19;;;;;;;;;;;;;;;5.03;58.50;97175.81;5101543;28;19924;-63
2024/01/17 08:49:47;;;;;;;;;;;;;;;5.02;58.56;97172.38;5103645;28;19923;-64
2024/01/17 08:52:14;;;;;;;;;;;;;;;4.88;58.15;97182.09;5102553;28;19932;-66
2024/01/17 08:54:40;;;;;;;;;;;;;;;5.01;58.32;97175.81;5103406;28;19924;-65
2024/01/17 08:57:07;;;;;;;;;;;;;;;5.25;58.13;97184.72;5103553;28;19938;-63
2024/01/17 08:59:37;;;;;;;;;;;;;;;5.18;58.03;97165.16;5102215;28;20407;-63
2024/01/17 09:02:05;;;;;;;;;;;;;;;5.23;57.66;97163.38;5103543;28;19924;-63
2024/01/17 09:04:32;;;;;;;;;;;;;;;5.33;58.56;97165.69;5101753;28;19931;-63
2024/01/17 09:06:59;;;;;;;;;;;;;;;5.30;58.96;97154.63;5103408;28;19947;-64
2024/01/17 09:09:26;;;;;;;;;;;;;;;5.40;57.88;97148.41;5101459;28;19939;-62
2024/01/17 09:11:53;;;;;;;;;;;;;;;5.42;57.71;97144.09;5102857;28;19923;-63
2024/01/17 09:14:21;;;;;;;;;;;;;;;5.51;59.19;97137.00;5102265;28;20027;-64
2024/01/17 09:16:50;;;;;;;;;;;;;;;5.64;60.28;97134.97;5100513;28;20382;-64
2024/01/17 09:19:17;;;;;;;;;;;;;;;5.92;58.46;97138.53;5102555;28;20398;-64
2024/01/17 09:21:44;;;;;;;;;;;;;;;6.12;58.52;97141.44;5101095;28;20036;-64
2024/01/17 09:24:11;;;;;;;;;;;;;;;6.07;58.68;97148.44;5103247;28;19935;-64
2024/01/17 09:26:38;;;;;;;;;;;;;;;6.17;58.89;97144.75;5087456;28;19931;-64
2024/01/17 09:29:06;;;;;;;;;;;;;;;6.37;58.58;97152.75;5088660;28;19924;-63
2024/01/17 09:31:33;;;;;;;;;;;;;;;6.31;58.84;97149.50;5088256;28;19924;-65
2024/01/17 09:34:01;;;;;;;;;;;;;;;6.24;58.79;97094.84;5087760;28;19928;-64
2024/01/17 09:36:28;;;;;;;;;;;;;;;6.47;59.89;97143.06;5088756;28;19924;-65
2024/01/17 09:38:55;;;;;;;;;;;;;;;6.59;59.75;97138.38;5085811;28;20035;-65
2024/01/17 09:41:23;;;;;;;;;;;;;;;6.48;61.11;97130.16;5088962;28;19947;-64
2024/01/17 09:43:50;;;;;;;;;;;;;;;6.41;63.96;97125.19;5086998;28;19989;-64
2024/01/17 09:46:17;;;;;;;;;;;;;;;6.58;63.80;97126.44;5088729;28;20001;-65
2024/01/17 09:48:44;;;;;;;;;;;;;;;6.78;62.59;97122.44;5088201;28;19928;-65
2024/01/17 09:51:15;;;;;;;;;;;;;;;6.84;62.73;97122.25;5087949;28;19931;-65
2024/01/17 09:53:44;;;;;;;;;;;;;;;6.66;63.58;97117.66;5088670;28;19924;-64
2024/01/17 09:56:13;;;;;;;;;;;;;;;6.66;65.07;97107.38;5087052;28;19928;-64
2024/01/17 09:58:42;;;;;;;;;;;;;;;6.84;64.67;97099.09;5088648;28;19924;-65
2024/01/17 10:01:10;;;;;;;;;;;;;;;7.00;65.24;97096.00;5085625;28;19924;-64
2024/01/17 10:03:38;;;;;;;;;;;;;;;6.85;65.50;97080.16;5087642;28;20391;-64
2024/01/17 10:06:07;;;;;;;;;;;;;;;6.91;66.46;97087.69;5086662;28;19924;-64
2024/01/17 10:08:34;;;;;;;;;;;;;;;7.09;64.99;97079.44;5088101;28;19947;-64
2024/01/17 10:11:01;;;;;;;;;;;;;;;7.05;65.22;97064.94;5088462;28;20540;-63
2024/01/17 10:13:28;;;;;;;;;;;;;;;7.12;64.83;97072.44;5086169;28;19924;-65
2024/01/17 10:15:58;;;;;;;;;;;;;;;7.20;64.94;97069.63;5088372;28;19924;-64
2024/01/17 10:18:26;;;;;;;;;;;;;;;7.38;64.63;97072.44;5084898;28;19924;-65
2024/01/17 10:20:53;;;;;;;;;;;;;;;7.46;63.42;97061.88;5087851;28;19931;-65
2024/01/17 10:23:20;;;;;;;;;;;;;;;7.38;64.32;97069.00;5087465;28;19928;-65
2024/01/17 10:25:47;;;;;;;;;;;;;;;7.33;64.62;97060.63;5087125;28;20395;-66
2024/01/17 10:28:13;;;;;;;;;;;;;;;7.39;63.62;97057.84;5088180;28;19998;-64
2024/01/17 10:30:41;;;;;;;;;;;;;;;7.51;63.67;97052.28;5086479;28;20177;-64
2024/01/17 10:33:08;;;;;;;;;;;;;;;7.48;64.19;97036.09;5087933;28;19981;-66
2024/01/17 10:35:36;;;;;;;;;;;;;;;7.00;64.07;96979.31;5086295;28;20011;-63
2024/01/17 10:38:03;;;;;;;;;;;;;;;7.37;62.75;97031.28;5087108;28;19924;-66
2024/01/17 10:40:30;;;;;;;;;;;;;;;7.37;63.48;97026.97;5086624;28;19928;-64
2024/01/17 10:43:09;;;;;;;;;;;;;;;7.40;62.63;97026.00;5087222;28;19928;-63
2024/01/17 10:45:39;;;;;;;;;;;;;;;7.47;62.88;97021.50;5070322;28;19928;-64
2024/01/17 10:48:06;;;;;;;;;;;;;;;7.47;62.49;97019.78;5086070;28;20032;-65
2024/01/17 10:50:34;;;;;;;;;;;;;;;7.54;62.62;97005.81;5087920;28;20343;-63
2024/01/17 10:53:03;;;;;;;;;;;;;;;7.55;61.96;96999.75;5086080;28;19924;-64
2024/01/17 10:55:32;;;;;;;;;;;;;;;7.81;61.66;96988.53;5087880;28;19951;-63
2024/01/17 10:58:19;;;;;;;;;;;;;;;8.12;60.89;96989.06;5079268;28;20005;-64
2024/01/17 11:01:03;;;;;;;;;;;;;;;8.43;60.37;96975.91;5067153;28;20424;-63
2024/01/17 11:03:33;;;;;;;;;;;;;;;8.55;59.22;96971.09;5087734;28;19928;-64
2024/01/17 11:06:00;;;;;;;;;;;;;;;8.74;58.27;96971.22;5101073;28;19970;-64
2024/01/17 11:08:28;;;;;;;;;;;;;;;8.65;58.73;96967.28;5087821;28;19944;-65
2024/01/17 11:10:56;;;;;;;;;;;;;;;8.87;57.71;96972.44;5086195;28;19959;-65
2024/01/17 11:13:25;;;;;;;;;;;;;;;8.79;56.79;96970.16;5086780;28;19931;-64
2024/01/17 11:15:53;;;;;;;;;;;;;;;8.90;56.66;96967.16;5087353;28;20418;-64
2024/01/17 11:18:22;;;;;;;;;;;;;;;8.80;54.65;96951.16;5065644;28;19925;-64
2024/01/17 11:20:49;;;;;;;;;;;;;;;8.93;54.49;96961.84;5078194;28;19924;-63
2024/01/17 11:23:37;;;;;;;;;;;;;;;8.84;55.21;96947.56;5082118;28;20319;-63
2024/01/17 11:26:26;;;;;;;;;;;;;;;8.93;55.31;96946.34;5086434;28;19924;-63
2024/01/17 11:29:07;;;;;;;;;;;;;;;8.99;55.11;96946.94;5080353;28;19951;-63
2024/01/17 11:32:06;;;;;;;;;;;;;;;8.96;56.04;96947.06;5079648;28;19977;-64
2024/01/17 11:35:07;;;;;;;;;;;;;;;8.85;55.99;96943.25;5081877;28;19931;-63
2024/01/17 11:38:07;;;;;;;;;;;;;;;9.07;55.71;96933.72;5086719;28;19924;-63
2024/01/17 11:41:09;;;;;;;;;;;;;;;9.05;55.88;96930.34;5085053;28;20023;-65
2024/01/17 11:44:10;;;;;;;;;;;;;;;9.00;56.17;96927.94;5085723;28;20338;-64
2024/01/17 11:47:10;;;;;;;;;;;;;;;8.99;56.31;96928.03;5086782;28;20341;-63
2024/01/17 11:50:11;;;;;;;;;;;;;;;9.24;55.73;96923.50;5085218;28;19976;-63
2024/01/17 11:53:11;;;;;;;;;;;;;;;9.25;55.03;96922.63;5082709;28;19980;-64
2024/01/17 11:56:16;;;;;;;;;;;;;;;9.36;55.17;96912.66;5086488;28;19977;-63
2024/01/17 11:59:26;;;;;;;;;;;;;;;9.49;54.67;96906.06;5087065;28;19931;-64
2024/01/17 12:02:26;;;;;;;;;;;;;;;9.64;53.69;96901.97;5084155;28;19963;-63
2024/01/17 12:05:27;;;;;;;;;;;;;;;9.56;54.21;96891.94;5085467;28;19928;-65
2024/01/17 12:08:28;;;;;;;;;;;;;;;9.59;53.99;96888.38;5086025;28;19959;-64
2024/01/17 12:11:28;;;;;;;;;;;;;;;9.37;54.24;96883.34;5084949;28;19924;-64
2024/01/17 12:14:29;;;;;;;;;;;;;;;9.74;53.90;96880.81;5078628;28;19924;-64
2024/01/17 12:17:30;;;;;;;;;;;;;;;9.66;53.33;96888.06;5065990;28;19924;-63
2024/01/17 12:20:31;;;;;;;;;;;;;;;9.63;53.21;96887.34;5065028;28;20027;-64
2024/01/17 12:23:12;;;;;;;;;;;;;;;9.77;52.73;96891.00;5064299;28;19924;-63
2024/01/17 12:25:39;;;;;;;;;;;;;;;9.46;53.38;96867.41;5066325;28;19930;-65
2024/01/17 12:28:06;;;;;;;;;;;;;;;9.52;53.44;96882.66;5064886;28;19925;-64
2024/01/17 12:30:34;;;;;;;;;;;;;;;9.57;53.32;96879.88;5066404;28;19925;-64
2024/01/17 12:33:01;;;;;;;;;;;;;;;9.38;53.67;96877.25;5065160;28;20327;-62
2024/01/17 12:35:28;;;;;;;;;;;;;;;9.27;53.97;96863.97;5065872;28;19924;-63
2024/01/17 12:37:55;;;;;;;;;;;;;;;9.41;53.90;96866.78;5066568;28;19929;-62
2024/01/17 12:40:22;;;;;;;;;;;;;;;9.37;54.15;96864.41;5065365;28;19931;-64
2024/01/17 12:42:51;;;;;;;;;;;;;;;9.53;54.12;96868.81;5066382;28;19924;-63
2024/01/17 12:45:18;;;;;;;;;;;;;;;9.00;53.90;96773.00;5064410;28;19924;-64
2024/01/17 12:47:50;;;;;;;;;;;;;;;9.66;53.83;96861.38;5066357;28;20018;-63
2024/01/17 12:50:19;;;;;;;;;;;;;;;9.69;53.75;96856.03;5065077;28;19931;-64
2024/01/17 12:52:46;;;;;;;;;;;;;;;9.64;54.08;96847.66;5064180;28;19982;-63
2024/01/17 12:55:14;;;;;;;;;;;;;;;9.58;54.07;96846.19;5064771;28;19928;-64
2024/01/17 12:57:41;;;;;;;;;;;;;;;9.64;54.13;96848.50;5064484;28;19925;-64
2024/01/17 13:00:10;;;;;;;;;;;;;;;9.57;55.05;96836.75;5066660;28;20019;-66
2024/01/17 13:02:38;;;;;;;;;;;;;;;9.47;56.05;96866.50;5068421;28;20035;-65
2024/01/17 13:05:08;;;;;;;;;;;;;;;9.59;55.17;96839.28;5069979;28;20449;-63
2024/01/17 13:07:35;;;;;;;;;;;;;;;9.66;54.92;96835.50;5067047;28;19925;-64
2024/01/17 13:10:14;;;;;;;;;;;;;;;9.65;54.41;96828.66;5068912;28;19931;-64
2024/01/17 13:12:42;;;;;;;;;;;;;;;9.69;54.77;96840.53;5069435;28;20441;-63